createdAt,value
2022-10-23T00:00:19.707Z,7.18
2022-10-23T00:03:44.460Z,7.43
2022-10-23T00:07:05.856Z,7.20
2022-10-23T00:10:29.387Z,7.53
2022-10-23T00:13:54.849Z,6.65
2022-10-23T00:17:16.217Z,7.28
2022-10-23T00:20:37.653Z,6.88
2022-10-23T00:23:59.479Z,7.20
2022-10-23T00:27:21.269Z,7.10
2022-10-23T00:30:44.595Z,7.50
2022-10-23T00:34:08.392Z,6.95
2022-10-23T00:37:30.385Z,6.80
2022-10-23T00:40:52.547Z,6.68
2022-10-23T00:44:47.611Z,6.50
2022-10-23T00:48:10.954Z,6.95
2022-10-23T00:51:37.201Z,6.32
2022-10-23T00:54:59.371Z,6.45
2022-10-23T00:58:22.231Z,6.90
2022-10-23T01:01:43.977Z,6.35
2022-10-23T01:05:08.940Z,5.88
2022-10-23T01:08:36.418Z,6.00
2022-10-23T01:12:02.224Z,5.78
2022-10-23T01:15:30.466Z,6.47
2022-10-23T01:18:56.410Z,6.53
2022-10-23T01:22:38.828Z,7.30
2022-10-23T01:26:11.320Z,6.00
2022-10-23T01:29:40.384Z,5.78
2022-10-23T01:33:07.852Z,7.00
2022-10-23T01:36:40.840Z,6.05
2022-10-23T01:40:06.426Z,6.00
2022-10-23T01:43:33.700Z,6.15
2022-10-23T01:46:58.770Z,5.90
2022-10-23T01:50:25.177Z,5.82
2022-10-23T01:53:59.217Z,6.25
2022-10-23T01:57:23.405Z,5.55
2022-10-23T02:00:46.664Z,5.80
2022-10-23T02:04:12.736Z,5.88
2022-10-23T02:07:35.156Z,5.55
2022-10-23T02:11:06.888Z,6.00
2022-10-23T02:14:37.581Z,5.75
2022-10-23T02:18:09.583Z,5.18
2022-10-23T02:21:40.121Z,5.80
2022-10-23T02:25:10.070Z,6.50
2022-10-23T02:28:41.378Z,5.90
2022-10-23T02:32:04.794Z,5.90
2022-10-23T02:35:27.049Z,5.88
2022-10-23T02:38:59.329Z,5.90
2022-10-23T02:42:24.982Z,5.43
2022-10-23T02:45:55.101Z,5.53
2022-10-23T02:49:21.085Z,6.30
2022-10-23T02:52:52.251Z,5.88
2022-10-23T02:56:21.712Z,5.35
2022-10-23T02:59:46.454Z,6.30
2022-10-23T03:03:14.449Z,6.20
2022-10-23T03:06:36.817Z,5.80
2022-10-23T03:09:58.248Z,5.70
2022-10-23T03:13:21.708Z,6.32
2022-10-23T03:16:43.703Z,6.18
2022-10-23T03:20:05.789Z,5.70
2022-10-23T03:23:27.342Z,6.05
2022-10-23T03:26:49.130Z,5.72
2022-10-23T03:30:13.339Z,5.68
2022-10-23T03:33:35.546Z,5.90
2022-10-23T03:37:06.537Z,5.85
2022-10-23T03:40:28.273Z,5.82
2022-10-23T03:43:50.013Z,5.50
2022-10-23T03:47:12.874Z,5.30
2022-10-23T03:50:37.039Z,5.78
2022-10-23T03:54:00.208Z,5.78
2022-10-23T03:57:21.621Z,5.45
2022-10-23T04:04:12.423Z,5.50
2022-10-23T04:07:36.524Z,4.90
2022-10-23T04:10:58.811Z,5.20
2022-10-23T04:14:29.443Z,5.15
2022-10-23T04:17:51.371Z,5.65
2022-10-23T04:21:15.649Z,5.63
2022-10-23T04:24:36.842Z,5.43
2022-10-23T04:27:58.487Z,5.35
2022-10-23T04:31:20.115Z,5.03
2022-10-23T04:34:41.782Z,5.13
2022-10-23T04:38:04.889Z,6.00
2022-10-23T04:41:26.649Z,5.90
2022-10-23T04:44:48.388Z,6.05
2022-10-23T04:48:10.316Z,5.65
2022-10-23T04:51:49.661Z,5.60
2022-10-23T04:55:30.692Z,5.63
2022-10-23T04:59:06.713Z,5.65
2022-10-23T05:02:28.885Z,5.60
2022-10-23T05:05:50.563Z,5.65
2022-10-23T05:09:30.611Z,5.00
2022-10-23T05:13:06.203Z,5.82
2022-10-23T05:16:37.967Z,5.45
2022-10-23T05:20:02.910Z,5.43
2022-10-23T05:23:26.335Z,6.05
2022-10-23T05:26:52.895Z,4.90
2022-10-23T05:30:17.185Z,4.95
2022-10-23T05:33:41.008Z,4.82
2022-10-23T05:37:03.493Z,5.25
2022-10-23T05:40:30.268Z,4.47
2022-10-23T05:43:57.844Z,5.32
2022-10-23T05:47:40.266Z,5.13
2022-10-23T05:51:24.998Z,5.03
2022-10-23T05:55:11.525Z,5.75
2022-10-23T05:58:43.252Z,5.18
2022-10-23T06:02:40.318Z,5.13
2022-10-23T06:06:15.522Z,4.82
2022-10-23T06:09:42.964Z,4.45
2022-10-23T06:13:05.207Z,5.15
2022-10-23T06:16:28.285Z,4.85
2022-10-23T06:19:51.306Z,4.97
2022-10-23T06:23:13.406Z,6.18
2022-10-23T06:26:54.290Z,5.53
2022-10-23T06:30:27.074Z,5.63
2022-10-23T06:33:50.723Z,6.80
2022-10-23T06:37:13.913Z,5.63
2022-10-23T06:40:54.329Z,6.22
2022-10-23T06:44:23.900Z,5.72
2022-10-23T06:47:54.107Z,6.50
2022-10-23T06:51:34.719Z,6.75
2022-10-23T06:54:59.365Z,8.27
2022-10-23T06:58:28.641Z,8.77
2022-10-23T07:02:03.391Z,7.57
2022-10-23T07:05:25.750Z,8.75
2022-10-23T07:08:48.410Z,14.73
2022-10-23T07:12:36.683Z,10.57
2022-10-23T07:20:09.821Z,7.68
2022-10-23T07:23:32.025Z,11.73
2022-10-23T07:26:54.668Z,13.55
2022-10-23T07:30:22.663Z,11.93
2022-10-23T07:33:48.915Z,12.98
2022-10-23T07:37:13.868Z,12.15
2022-10-23T07:40:36.939Z,12.05
2022-10-23T07:43:59.463Z,9.57
2022-10-23T07:47:24.285Z,9.50
2022-10-23T07:50:47.020Z,9.93
2022-10-23T07:54:11.063Z,10.00
2022-10-23T07:57:51.660Z,9.77
2022-10-23T08:01:34.604Z,10.45
2022-10-23T08:04:58.040Z,10.40
2022-10-23T08:08:29.779Z,10.93
2022-10-23T08:11:58.259Z,10.48
2022-10-23T08:15:22.981Z,11.05
2022-10-23T08:18:54.319Z,12.55
2022-10-23T08:22:22.797Z,11.35
2022-10-23T08:25:48.443Z,11.27
2022-10-23T08:29:12.811Z,11.68
2022-10-23T08:32:56.024Z,10.68
2022-10-23T08:36:19.660Z,12.00
2022-10-23T08:39:43.298Z,10.90
2022-10-23T08:43:18.803Z,10.32
2022-10-23T08:47:01.709Z,10.48
2022-10-23T08:51:01.107Z,10.25
2022-10-23T08:54:27.607Z,10.32
2022-10-23T08:58:00.456Z,9.95
2022-10-23T09:01:32.455Z,9.88
2022-10-23T09:04:56.510Z,7.85
2022-10-23T09:08:33.553Z,7.72
2022-10-23T09:12:05.153Z,6.60
2022-10-23T09:15:32.491Z,7.00
2022-10-23T09:18:56.210Z,6.78
2022-10-23T09:22:18.200Z,6.85
2022-10-23T09:25:43.803Z,6.60
2022-10-23T09:29:19.569Z,7.75
2022-10-23T09:32:47.862Z,6.32
2022-10-23T09:36:19.778Z,5.68
2022-10-23T09:43:28.428Z,5.95
2022-10-23T09:47:01.581Z,6.45
2022-10-23T09:50:25.070Z,5.95
2022-10-23T09:53:54.765Z,6.28
2022-10-23T09:57:23.890Z,6.22
2022-10-23T10:00:52.276Z,5.25
2022-10-23T10:04:38.270Z,5.20
2022-10-23T10:08:22.626Z,5.43
2022-10-23T10:11:50.314Z,4.70
2022-10-23T10:15:22.265Z,4.97
2022-10-23T10:18:57.315Z,4.68
2022-10-23T10:22:32.385Z,4.53
2022-10-23T10:26:03.379Z,4.00
2022-10-23T10:29:43.175Z,3.80
2022-10-23T10:33:16.029Z,4.47
2022-10-23T10:36:48.847Z,3.90
2022-10-23T10:40:21.970Z,3.70
2022-10-23T10:43:55.824Z,3.60
2022-10-23T10:47:24.417Z,3.90
2022-10-23T10:50:52.535Z,3.50
2022-10-23T10:54:37.693Z,3.67
2022-10-23T10:58:05.385Z,4.15
2022-10-23T11:01:34.301Z,2.80
2022-10-23T11:05:04.064Z,2.97
2022-10-23T11:08:44.526Z,8.18
2022-10-23T11:12:27.412Z,5.13
2022-10-23T11:19:25.236Z,3.45
2022-10-23T11:22:56.697Z,3.50
2022-10-23T11:26:42.827Z,3.20
2022-10-23T11:30:24.102Z,3.40
2022-10-23T11:34:06.499Z,3.47
2022-10-23T11:37:30.828Z,3.22
2022-10-23T11:40:57.088Z,3.03
2022-10-23T11:44:29.485Z,3.05
2022-10-23T11:47:59.511Z,3.75
2022-10-23T11:51:31.515Z,3.22
2022-10-23T11:55:07.402Z,2.92
2022-10-23T11:58:41.858Z,3.05
2022-10-23T12:02:22.878Z,3.45
2022-10-23T12:05:46.244Z,3.30
2022-10-23T12:09:23.836Z,3.00
2022-10-23T12:12:57.501Z,3.10
2022-10-23T12:16:20.175Z,2.90
2022-10-23T12:19:51.459Z,2.78
2022-10-23T12:23:37.211Z,2.85
2022-10-23T12:27:09.163Z,2.53
2022-10-23T12:30:47.666Z,2.92
2022-10-23T12:34:24.286Z,2.75
2022-10-23T12:38:01.077Z,2.60
2022-10-23T12:41:28.512Z,2.67
2022-10-23T12:45:00.516Z,2.33
2022-10-23T12:48:27.744Z,2.70
2022-10-23T12:51:57.952Z,2.70
2022-10-23T12:55:20.309Z,2.42
2022-10-23T12:58:48.975Z,2.50
2022-10-23T13:02:22.998Z,1.98
2022-10-23T13:05:46.378Z,2.15
2022-10-23T13:09:20.709Z,2.20
2022-10-23T13:12:57.980Z,32.15
2022-10-23T13:16:21.677Z,8.73
2022-10-23T13:19:43.252Z,3.88
2022-10-23T13:23:17.925Z,2.50
2022-10-23T13:26:45.127Z,2.20
2022-10-23T13:30:31.122Z,2.10
2022-10-23T13:34:05.395Z,3.05
2022-10-23T13:37:30.891Z,2.20
2022-10-23T13:40:59.226Z,2.28
2022-10-23T13:44:23.019Z,1.83
2022-10-23T13:47:45.210Z,2.55
2022-10-23T13:51:13.675Z,2.13
2022-10-23T13:54:35.114Z,2.75
2022-10-23T13:57:59.392Z,2.70
2022-10-23T14:01:24.305Z,2.72
2022-10-23T14:04:46.350Z,3.92
2022-10-23T14:08:08.440Z,3.40
2022-10-23T14:11:30.770Z,3.40
2022-10-23T14:14:54.249Z,3.33
2022-10-23T14:18:16.222Z,3.42
2022-10-23T14:21:38.069Z,25.13
2022-10-23T14:24:59.401Z,22.38
2022-10-23T14:28:21.669Z,5.60
2022-10-23T14:31:44.307Z,3.05
2022-10-23T14:35:06.772Z,3.00
2022-10-23T14:38:28.669Z,3.10
2022-10-23T14:41:50.254Z,3.30
2022-10-23T14:45:12.116Z,3.90
2022-10-23T14:48:37.637Z,3.00
2022-10-23T14:51:59.161Z,3.08
2022-10-23T14:55:20.684Z,3.08
2022-10-23T14:58:43.387Z,2.80
2022-10-23T15:02:05.157Z,3.72
2022-10-23T15:05:28.213Z,3.10
2022-10-23T15:08:50.721Z,3.53
2022-10-23T15:12:12.267Z,3.97
2022-10-23T15:15:33.612Z,4.35
2022-10-23T15:18:55.441Z,4.05
2022-10-23T15:22:19.538Z,3.85
2022-10-23T15:25:42.050Z,4.00
2022-10-23T15:29:03.890Z,3.83
2022-10-23T15:32:25.354Z,3.63
2022-10-23T15:35:46.999Z,3.58
2022-10-23T15:39:11.813Z,3.60
2022-10-23T15:42:33.591Z,3.78
2022-10-23T15:45:54.917Z,3.92
2022-10-23T15:49:16.549Z,3.85
2022-10-23T15:52:38.015Z,3.75
2022-10-23T15:56:01.094Z,3.60
2022-10-23T15:59:24.500Z,4.28
2022-10-23T16:02:46.437Z,3.70
2022-10-23T16:06:10.641Z,3.72
2022-10-23T16:09:35.020Z,4.07
2022-10-23T16:12:58.009Z,4.32
2022-10-23T16:16:19.752Z,4.25
2022-10-23T16:19:41.536Z,3.78
2022-10-23T16:23:02.967Z,3.50
2022-10-23T16:26:24.808Z,4.57
2022-10-23T16:29:47.960Z,4.15
2022-10-23T16:33:09.596Z,4.95
2022-10-23T16:36:31.350Z,4.75
2022-10-23T16:40:04.989Z,5.47
2022-10-23T16:43:44.965Z,5.63
2022-10-23T16:47:22.212Z,5.40
2022-10-23T16:50:43.396Z,5.57
2022-10-23T16:54:05.348Z,5.10
2022-10-23T16:57:27.979Z,5.40
2022-10-23T17:00:57.022Z,5.05
2022-10-23T17:04:20.017Z,5.30
2022-10-23T17:07:41.903Z,5.35
2022-10-23T17:11:08.639Z,4.45
2022-10-23T17:14:30.087Z,4.47
2022-10-23T17:17:51.748Z,4.43
2022-10-23T17:21:16.054Z,3.70
2022-10-23T17:24:37.665Z,3.47
2022-10-23T17:27:59.199Z,3.83
2022-10-23T17:31:22.552Z,4.00
2022-10-23T17:34:43.745Z,4.10
2022-10-23T17:38:06.846Z,4.25
2022-10-23T17:41:28.626Z,3.70
2022-10-23T17:44:50.348Z,4.20
2022-10-23T17:48:13.041Z,4.07
2022-10-23T17:51:36.352Z,4.57
2022-10-23T17:54:59.124Z,5.38
2022-10-23T17:58:20.462Z,4.35
2022-10-23T18:01:43.877Z,4.50
2022-10-23T18:05:06.357Z,4.50
2022-10-23T18:08:27.946Z,4.88
2022-10-23T18:11:51.656Z,5.65
2022-10-23T18:15:13.144Z,5.22
2022-10-23T18:18:35.602Z,5.32
2022-10-23T18:21:57.583Z,6.68
2022-10-23T18:25:19.815Z,5.82
2022-10-23T18:28:42.551Z,5.97
2022-10-23T18:32:04.206Z,5.53
2022-10-23T18:35:26.193Z,6.03
2022-10-23T18:38:47.692Z,6.03
2022-10-23T18:42:09.322Z,6.03
2022-10-23T18:45:32.731Z,5.80
2022-10-23T18:48:54.708Z,5.88
2022-10-23T18:52:16.101Z,6.53
2022-10-23T18:55:37.556Z,6.13
2022-10-23T18:59:00.601Z,6.43
2022-10-23T19:02:23.773Z,6.90
2022-10-23T19:05:46.787Z,5.78
2022-10-23T19:09:10.351Z,5.43
2022-10-23T19:12:31.796Z,4.82
2022-10-23T19:15:53.799Z,5.05
2022-10-23T19:19:20.957Z,5.03
2022-10-23T19:22:44.356Z,4.38
2022-10-23T19:26:08.836Z,4.75
2022-10-23T19:29:30.997Z,4.70
2022-10-23T19:32:52.514Z,4.43
2022-10-23T19:36:17.554Z,4.88
2022-10-23T19:39:40.317Z,4.50
2022-10-23T19:43:01.904Z,5.70
2022-10-23T19:46:23.623Z,6.43
2022-10-23T19:49:45.612Z,8.27
2022-10-23T19:53:08.906Z,7.57
2022-10-23T19:56:30.183Z,6.65
2022-10-23T19:59:52.619Z,6.20
2022-10-23T20:03:14.455Z,6.47
2022-10-23T20:06:37.561Z,6.60
2022-10-23T20:10:00.922Z,6.32
2022-10-23T20:13:23.130Z,6.03
2022-10-23T20:16:47.099Z,5.93
2022-10-23T20:20:09.480Z,6.80
2022-10-23T20:23:30.926Z,6.60
2022-10-23T20:26:56.058Z,5.97
2022-10-23T20:30:17.633Z,5.90
2022-10-23T20:33:40.565Z,5.97
2022-10-23T20:37:02.169Z,6.35
2022-10-23T20:40:23.987Z,5.90
2022-10-23T20:43:46.823Z,6.10
2022-10-23T20:47:08.415Z,6.10
2022-10-23T20:50:30.362Z,6.57
2022-10-23T20:53:54.539Z,6.22
2022-10-23T20:57:19.161Z,7.18
2022-10-23T21:00:44.084Z,7.93
2022-10-23T21:04:06.231Z,9.65
2022-10-23T21:07:27.800Z,9.48
2022-10-23T21:10:49.225Z,9.30
2022-10-23T21:14:10.745Z,8.82
2022-10-23T21:17:36.004Z,8.15
2022-10-23T21:20:57.869Z,8.23
2022-10-23T21:24:19.275Z,8.13
2022-10-23T21:27:40.691Z,7.13
2022-10-23T21:31:06.999Z,8.20
2022-10-23T21:34:30.285Z,7.43
2022-10-23T21:37:52.058Z,7.35
2022-10-23T21:41:15.290Z,7.18
2022-10-23T21:44:37.160Z,7.18
2022-10-23T21:47:58.854Z,6.93
2022-10-23T21:51:24.588Z,7.45
2022-10-23T21:54:46.221Z,7.25
2022-10-23T21:58:07.962Z,6.85
2022-10-23T22:01:30.318Z,6.70
2022-10-23T22:04:51.759Z,7.13
2022-10-23T22:08:14.821Z,6.88
2022-10-23T22:11:36.706Z,6.28
2022-10-23T22:14:58.377Z,7.25
2022-10-23T22:18:20.094Z,6.95
2022-10-23T22:21:41.783Z,7.07
2022-10-23T22:25:05.567Z,7.15
2022-10-23T22:28:27.006Z,7.07
2022-10-23T22:31:50.128Z,7.80
2022-10-23T22:35:11.999Z,8.32
2022-10-23T22:38:33.255Z,8.98
2022-10-23T22:41:56.027Z,8.77
2022-10-23T22:45:18.024Z,9.15
2022-10-23T22:48:39.587Z,10.80
2022-10-23T22:52:01.232Z,7.97
2022-10-23T22:55:22.458Z,8.60
2022-10-23T22:58:45.858Z,9.13
2022-10-23T23:02:08.236Z,7.32
2022-10-23T23:05:29.975Z,8.52
2022-10-23T23:08:52.624Z,6.97
2022-10-23T23:12:15.513Z,7.15
2022-10-23T23:15:41.998Z,6.80
2022-10-23T23:19:05.546Z,6.05
2022-10-23T23:25:53.438Z,6.53
2022-10-23T23:29:14.679Z,6.45
2022-10-23T23:32:37.576Z,7.50
2022-10-23T23:35:58.976Z,6.95
2022-10-23T23:39:20.704Z,6.15
2022-10-23T23:42:42.756Z,6.40
2022-10-23T23:46:04.385Z,6.57
2022-10-23T23:49:27.608Z,6.57
2022-10-23T23:52:49.141Z,5.53
2022-10-23T23:56:10.993Z,5.85
2022-10-23T23:59:36.990Z,5.90
